createdAt,value
2022-08-17T00:00:51.977Z,24.21
2022-08-17T00:03:26.130Z,23.97
2022-08-17T00:06:00.120Z,23.79
2022-08-17T00:08:35.356Z,23.67
2022-08-17T00:11:10.804Z,23.81
2022-08-17T00:13:45.690Z,23.96
2022-08-17T00:16:20.774Z,23.97
2022-08-17T00:19:15.482Z,23.88
2022-08-17T00:22:29.640Z,23.95
2022-08-17T00:24:41.537Z,23.98
2022-08-17T00:27:13.341Z,23.65
2022-08-17T00:29:45.480Z,23.70
2022-08-17T00:33:15.195Z,23.82
2022-08-17T00:35:14.084Z,23.89
2022-08-17T00:37:45.744Z,23.89
2022-08-17T00:40:18.463Z,23.90
2022-08-17T00:42:51.506Z,23.81
2022-08-17T00:45:23.439Z,23.80
2022-08-17T00:47:55.177Z,23.77
2022-08-17T00:50:26.869Z,23.77
2022-08-17T00:53:00.237Z,23.64
2022-08-17T00:55:32.872Z,23.65
2022-08-17T00:58:06.643Z,23.62
2022-08-17T01:00:42.239Z,23.48
2022-08-17T01:03:19.525Z,23.49
2022-08-17T01:05:56.174Z,23.46
2022-08-17T01:08:32.108Z,23.38
2022-08-17T01:11:05.387Z,23.33
2022-08-17T01:13:41.718Z,23.36
2022-08-17T01:16:19.301Z,23.24
2022-08-17T01:18:54.229Z,23.24
2022-08-17T01:21:32.964Z,23.23
2022-08-17T01:24:05.342Z,23.23
2022-08-17T01:26:38.285Z,23.25
2022-08-17T01:29:11.381Z,23.19
2022-08-17T01:31:51.140Z,23.05
2022-08-17T01:34:24.804Z,22.93
2022-08-17T01:37:15.625Z,22.84
2022-08-17T01:39:52.277Z,22.89
2022-08-17T01:42:32.021Z,22.89
2022-08-17T01:45:11.152Z,22.87
2022-08-17T01:47:42.865Z,22.85
2022-08-17T01:50:19.780Z,22.73
2022-08-17T01:52:55.256Z,22.53
2022-08-17T01:55:33.414Z,22.49
2022-08-17T01:58:09.552Z,22.54
2022-08-17T02:00:46.760Z,22.38
2022-08-17T02:03:34.475Z,22.45
2022-08-17T02:06:27.131Z,22.34
2022-08-17T02:09:03.199Z,22.29
2022-08-17T02:11:39.128Z,22.32
2022-08-17T02:14:12.343Z,22.47
2022-08-17T02:16:44.794Z,22.47
2022-08-17T02:19:17.668Z,22.21
2022-08-17T02:21:51.466Z,22.07
2022-08-17T02:25:00.815Z,22.18
2022-08-17T02:27:18.369Z,22.29
2022-08-17T02:29:50.009Z,22.39
2022-08-17T02:32:28.045Z,22.40
2022-08-17T02:35:00.678Z,22.41
2022-08-17T02:37:32.522Z,22.46
2022-08-17T02:40:06.225Z,22.51
2022-08-17T02:42:40.510Z,22.17
2022-08-17T02:45:15.103Z,22.05
2022-08-17T02:47:47.886Z,22.09
2022-08-17T02:50:22.019Z,22.29
2022-08-17T02:53:01.990Z,22.38
2022-08-17T02:55:37.158Z,22.37
2022-08-17T02:58:10.550Z,22.34
2022-08-17T03:00:47.770Z,22.20
2022-08-17T03:03:20.041Z,22.21
2022-08-17T03:05:53.216Z,22.18
2022-08-17T03:08:25.551Z,22.25
2022-08-17T03:10:55.896Z,22.14
2022-08-17T03:13:27.694Z,22.09
2022-08-17T03:15:59.565Z,21.77
2022-08-17T03:18:31.248Z,21.56
2022-08-17T03:21:04.639Z,21.62
2022-08-17T03:23:40.990Z,21.78
2022-08-17T03:26:15.513Z,21.60
2022-08-17T03:28:48.046Z,21.53
2022-08-17T03:31:21.433Z,21.53
2022-08-17T03:33:53.120Z,21.58
2022-08-17T03:36:24.790Z,21.62
2022-08-17T03:38:56.526Z,21.83
2022-08-17T03:41:28.317Z,21.94
2022-08-17T03:44:00.022Z,22.01
2022-08-17T03:46:45.611Z,22.03
2022-08-17T03:49:34.848Z,22.06
2022-08-17T03:52:20.719Z,22.04
2022-08-17T03:55:10.171Z,22.12
2022-08-17T03:57:41.947Z,22.12
2022-08-17T04:00:15.582Z,22.13
2022-08-17T04:02:47.556Z,22.16
2022-08-17T04:05:19.265Z,22.20
2022-08-17T04:07:51.779Z,22.22
2022-08-17T04:10:24.758Z,22.23
2022-08-17T04:12:59.180Z,22.21
2022-08-17T04:15:33.312Z,22.25
2022-08-17T04:18:06.957Z,22.28
2022-08-17T04:20:39.135Z,22.26
2022-08-17T04:23:13.330Z,22.25
2022-08-17T04:25:48.300Z,22.27
2022-08-17T04:28:21.678Z,22.31
2022-08-17T04:30:53.496Z,22.32
2022-08-17T04:33:27.278Z,22.33
2022-08-17T04:36:01.175Z,22.28
2022-08-17T04:38:35.877Z,22.29
2022-08-17T04:41:26.699Z,22.33
2022-08-17T04:43:59.317Z,22.35
2022-08-17T04:46:31.821Z,22.38
2022-08-17T04:49:06.574Z,22.40
2022-08-17T04:51:54.644Z,22.42
2022-08-17T04:54:30.396Z,22.44
2022-08-17T04:57:02.007Z,22.51
2022-08-17T04:59:33.908Z,22.61
2022-08-17T05:02:05.633Z,22.63
2022-08-17T05:04:37.362Z,22.67
2022-08-17T05:07:09.235Z,22.70
2022-08-17T05:09:40.949Z,22.60
2022-08-17T05:12:12.985Z,22.43
2022-08-17T05:14:44.633Z,22.55
2022-08-17T05:17:16.728Z,22.70
2022-08-17T05:19:51.878Z,22.72
2022-08-17T05:22:23.927Z,22.79
2022-08-17T05:24:56.023Z,22.85
2022-08-17T05:27:30.829Z,22.85
2022-08-17T05:30:08.938Z,22.89
2022-08-17T05:32:40.607Z,22.97
2022-08-17T05:35:12.553Z,22.93
2022-08-17T05:37:44.379Z,23.00
2022-08-17T05:40:17.050Z,23.07
2022-08-17T05:42:49.301Z,23.16
2022-08-17T05:45:54.504Z,23.20
2022-08-17T05:48:16.470Z,23.21
2022-08-17T05:50:55.838Z,23.32
2022-08-17T05:53:38.446Z,23.29
2022-08-17T05:56:30.207Z,23.40
2022-08-17T05:59:11.802Z,23.37
2022-08-17T06:01:51.654Z,23.36
2022-08-17T06:04:32.392Z,23.47
2022-08-17T06:07:12.125Z,23.60
2022-08-17T06:09:58.100Z,23.71
2022-08-17T06:12:41.528Z,23.68
2022-08-17T06:15:31.712Z,23.74
2022-08-17T06:18:06.893Z,23.80
2022-08-17T06:20:48.173Z,23.84
2022-08-17T06:23:28.095Z,23.77
2022-08-17T06:26:10.163Z,23.86
2022-08-17T06:28:49.193Z,23.99
2022-08-17T06:31:27.406Z,24.11
2022-08-17T06:34:01.261Z,24.20
2022-08-17T06:36:48.303Z,24.28
2022-08-17T06:39:40.891Z,24.36
2022-08-17T06:43:02.817Z,24.44
2022-08-17T06:45:23.989Z,24.52
2022-08-17T06:48:01.902Z,24.56
2022-08-17T06:50:38.722Z,24.64
2022-08-17T06:53:21.539Z,24.70
2022-08-17T06:55:57.154Z,24.73
2022-08-17T06:58:31.862Z,24.78
2022-08-17T07:01:09.663Z,24.84
2022-08-17T07:03:47.623Z,24.89
2022-08-17T07:06:22.005Z,24.95
2022-08-17T07:09:00.107Z,25.04
2022-08-17T07:11:38.774Z,25.13
2022-08-17T07:14:25.110Z,25.19
2022-08-17T07:16:59.400Z,25.19
2022-08-17T07:19:34.395Z,25.23
2022-08-17T07:22:18.039Z,25.30
2022-08-17T07:24:58.427Z,25.36
2022-08-17T07:27:33.134Z,25.41
2022-08-17T07:30:10.981Z,25.42
2022-08-17T07:32:48.031Z,25.52
2022-08-17T07:35:23.354Z,25.55
2022-08-17T07:38:25.485Z,25.59
2022-08-17T07:41:08.386Z,25.69
2022-08-17T07:43:49.904Z,25.79
2022-08-17T07:46:42.398Z,25.88
2022-08-17T07:49:24.043Z,25.98
2022-08-17T07:52:13.387Z,26.06
2022-08-17T07:54:57.585Z,26.11
2022-08-17T07:57:37.542Z,26.15
2022-08-17T08:00:31.832Z,26.18
2022-08-17T08:03:15.960Z,26.26
2022-08-17T08:06:00.279Z,26.29
2022-08-17T08:08:36.322Z,26.32
2022-08-17T08:11:11.977Z,26.38
2022-08-17T08:13:46.018Z,26.56
2022-08-17T08:16:30.269Z,26.60
2022-08-17T08:19:03.633Z,26.68
2022-08-17T08:21:46.508Z,26.77
2022-08-17T08:24:50.317Z,26.81
2022-08-17T08:27:34.896Z,26.90
2022-08-17T08:30:11.669Z,26.99
2022-08-17T08:33:05.569Z,26.98
2022-08-17T08:35:44.622Z,26.98
2022-08-17T08:38:25.520Z,27.14
2022-08-17T08:41:09.462Z,27.27
2022-08-17T08:43:56.921Z,27.33
2022-08-17T08:46:35.510Z,27.46
2022-08-17T08:50:01.808Z,27.49
2022-08-17T08:52:51.806Z,27.51
2022-08-17T08:55:35.563Z,27.66
2022-08-17T08:58:31.313Z,27.82
2022-08-17T09:01:04.166Z,27.80
2022-08-17T09:04:23.288Z,27.82
2022-08-17T09:07:08.759Z,27.90
2022-08-17T09:09:50.309Z,28.02
2022-08-17T09:12:34.557Z,28.21
2022-08-17T09:15:13.334Z,28.20
2022-08-17T09:18:14.615Z,28.28
2022-08-17T09:20:50.938Z,28.39
2022-08-17T09:23:32.802Z,28.42
2022-08-17T09:26:15.599Z,28.53
2022-08-17T09:28:51.822Z,28.77
2022-08-17T09:31:35.412Z,28.93
2022-08-17T09:34:31.922Z,28.96
2022-08-17T09:37:17.389Z,29.12
2022-08-17T09:39:56.400Z,29.20
2022-08-17T09:42:32.636Z,29.37
2022-08-17T09:45:22.762Z,29.41
2022-08-17T09:48:00.421Z,29.52
2022-08-17T09:51:03.336Z,29.67
2022-08-17T09:53:32.009Z,29.71
2022-08-17T09:56:33.140Z,29.79
2022-08-17T09:59:27.474Z,29.85
2022-08-17T10:02:31.110Z,30.03
2022-08-17T10:05:08.826Z,30.20
2022-08-17T10:07:47.224Z,30.37
2022-08-17T10:10:29.475Z,30.51
2022-08-17T10:13:13.125Z,30.59
2022-08-17T10:15:52.517Z,30.74
2022-08-17T10:18:37.715Z,31.05
2022-08-17T10:21:29.553Z,31.03
2022-08-17T10:24:33.479Z,31.13
2022-08-17T10:27:10.563Z,31.07
2022-08-17T10:29:49.853Z,30.93
2022-08-17T10:32:32.852Z,30.75
2022-08-17T10:35:25.614Z,30.70
2022-08-17T10:38:24.653Z,30.64
2022-08-17T10:41:02.542Z,30.63
2022-08-17T10:43:44.684Z,30.71
2022-08-17T10:46:53.968Z,30.94
2022-08-17T10:49:30.368Z,31.18
2022-08-17T10:52:05.420Z,30.95
2022-08-17T10:54:58.243Z,30.89
2022-08-17T10:57:45.997Z,31.25
2022-08-17T11:01:02.269Z,31.29
2022-08-17T11:03:34.416Z,31.09
2022-08-17T11:06:17.078Z,30.82
2022-08-17T11:09:16.609Z,30.70
2022-08-17T11:12:06.675Z,30.91
2022-08-17T11:15:00.366Z,30.87
2022-08-17T11:17:58.236Z,30.75
2022-08-17T11:21:05.521Z,30.73
2022-08-17T11:24:02.882Z,30.75
2022-08-17T11:26:36.817Z,30.94
2022-08-17T11:29:19.069Z,31.18
2022-08-17T11:32:03.550Z,31.50
2022-08-17T11:34:36.278Z,31.89
2022-08-17T11:37:37.544Z,32.05
2022-08-17T11:40:43.155Z,32.38
2022-08-17T11:43:33.222Z,32.48
2022-08-17T11:46:18.386Z,32.68
2022-08-17T11:49:21.489Z,32.79
2022-08-17T11:52:15.638Z,32.94
2022-08-17T11:54:49.807Z,32.92
2022-08-17T11:58:01.516Z,32.55
2022-08-17T12:00:57.772Z,32.39
2022-08-17T12:03:55.671Z,32.35
2022-08-17T12:06:45.261Z,32.24
2022-08-17T12:09:22.091Z,32.07
2022-08-17T12:12:12.465Z,32.02
2022-08-17T12:15:12.927Z,31.95
2022-08-17T12:17:52.535Z,32.15
2022-08-17T12:20:35.673Z,32.45
2022-08-17T12:23:17.194Z,32.69
2022-08-17T12:25:57.330Z,32.91
2022-08-17T12:28:31.950Z,33.03
2022-08-17T12:31:08.792Z,33.13
2022-08-17T12:33:46.232Z,32.93
2022-08-17T12:36:21.778Z,32.89
2022-08-17T12:39:14.272Z,32.73
2022-08-17T12:42:01.950Z,32.73
2022-08-17T12:44:46.116Z,32.52
2022-08-17T12:47:23.305Z,32.19
2022-08-17T12:50:05.649Z,32.03
2022-08-17T12:52:42.448Z,32.11
2022-08-17T12:55:22.460Z,32.08
2022-08-17T12:57:59.715Z,31.97
2022-08-17T13:00:38.065Z,31.94
2022-08-17T13:03:16.487Z,31.96
2022-08-17T13:05:59.873Z,31.96
2022-08-17T13:08:36.022Z,32.05
2022-08-17T13:11:10.440Z,32.09
2022-08-17T13:13:44.868Z,32.05
2022-08-17T13:16:21.630Z,32.00
2022-08-17T13:18:58.350Z,31.95
2022-08-17T13:21:33.133Z,31.85
2022-08-17T13:24:07.875Z,31.74
2022-08-17T13:26:42.645Z,31.75
2022-08-17T13:29:24.377Z,32.02
2022-08-17T13:32:14.341Z,32.05
2022-08-17T13:35:08.334Z,32.37
2022-08-17T13:37:42.603Z,32.66
2022-08-17T13:40:36.657Z,32.45
2022-08-17T13:43:08.916Z,32.40
2022-08-17T13:45:50.294Z,32.36
2022-08-17T13:48:29.050Z,32.37
2022-08-17T13:51:23.471Z,32.63
2022-08-17T13:54:24.119Z,32.81
2022-08-17T13:57:03.597Z,33.14
2022-08-17T13:59:53.020Z,33.34
2022-08-17T14:02:28.511Z,33.40
2022-08-17T14:05:02.118Z,33.62
2022-08-17T14:07:41.072Z,33.77
2022-08-17T14:10:18.330Z,34.03
2022-08-17T14:12:50.903Z,34.08
2022-08-17T14:15:53.977Z,34.18
2022-08-17T14:18:34.320Z,34.34
2022-08-17T14:21:11.938Z,34.31
2022-08-17T14:23:43.564Z,34.33
2022-08-17T14:26:21.397Z,34.34
2022-08-17T14:28:56.935Z,34.30
2022-08-17T14:31:31.867Z,34.26
2022-08-17T14:34:07.524Z,34.36
2022-08-17T14:36:41.853Z,34.27
2022-08-17T14:39:21.654Z,34.14
2022-08-17T14:41:53.929Z,34.15
2022-08-17T14:44:25.967Z,34.23
2022-08-17T14:46:56.676Z,33.95
2022-08-17T14:49:30.251Z,33.75
2022-08-17T14:52:03.292Z,33.66
2022-08-17T14:54:35.072Z,33.57
2022-08-17T14:57:23.229Z,33.49
2022-08-17T14:59:59.332Z,33.39
2022-08-17T15:02:31.387Z,33.47
2022-08-17T15:05:02.503Z,33.63
2022-08-17T15:07:34.289Z,33.46
2022-08-17T15:10:08.235Z,33.44
2022-08-17T15:12:40.812Z,33.50
2022-08-17T15:15:15.953Z,33.47
2022-08-17T15:17:47.650Z,33.32
2022-08-17T15:20:22.827Z,33.16
2022-08-17T15:22:57.209Z,33.07
2022-08-17T15:25:31.775Z,32.99
2022-08-17T15:28:04.033Z,32.87
2022-08-17T15:30:36.642Z,32.82
2022-08-17T15:33:08.409Z,32.81
2022-08-17T15:35:41.231Z,32.73
2022-08-17T15:38:13.136Z,32.66
2022-08-17T15:40:46.672Z,32.54
2022-08-17T15:43:26.447Z,32.55
2022-08-17T15:46:02.465Z,32.52
2022-08-17T15:48:42.338Z,32.51
2022-08-17T15:51:18.406Z,32.42
2022-08-17T15:53:52.170Z,32.37
2022-08-17T15:56:25.219Z,32.31
2022-08-17T15:58:57.348Z,32.29
2022-08-17T16:01:57.399Z,32.22
2022-08-17T16:04:30.054Z,32.15
2022-08-17T16:07:02.890Z,32.10
2022-08-17T16:09:34.716Z,32.00
2022-08-17T16:12:14.482Z,31.90
2022-08-17T16:14:46.963Z,31.83
2022-08-17T16:17:38.632Z,31.79
2022-08-17T16:20:20.712Z,31.70
2022-08-17T16:22:54.243Z,31.60
2022-08-17T16:25:52.357Z,31.55
2022-08-17T16:28:35.646Z,31.45
2022-08-17T16:31:08.883Z,31.35
2022-08-17T16:33:42.297Z,31.29
2022-08-17T16:36:35.255Z,31.19
2022-08-17T16:39:06.950Z,31.15
2022-08-17T16:41:44.533Z,31.09
2022-08-17T16:44:18.464Z,31.05
2022-08-17T16:46:51.498Z,30.99
2022-08-17T16:49:31.940Z,30.91
2022-08-17T16:52:11.289Z,30.86
2022-08-17T16:54:46.591Z,30.80
2022-08-17T16:57:19.641Z,30.74
2022-08-17T16:59:53.061Z,30.69
2022-08-17T17:02:31.137Z,30.65
2022-08-17T17:05:08.542Z,30.62
2022-08-17T17:07:51.915Z,30.61
2022-08-17T17:10:29.420Z,30.56
2022-08-17T17:13:04.199Z,30.54
2022-08-17T17:15:54.994Z,30.50
2022-08-17T17:18:38.422Z,30.49
2022-08-17T17:21:14.353Z,30.50
2022-08-17T17:23:52.254Z,30.51
2022-08-17T17:26:35.214Z,30.48
2022-08-17T17:29:27.435Z,30.45
2022-08-17T17:32:07.466Z,30.41
2022-08-17T17:34:41.719Z,30.40
2022-08-17T17:37:20.766Z,30.38
2022-08-17T17:39:56.908Z,30.34
2022-08-17T17:42:33.045Z,30.33
2022-08-17T17:45:15.935Z,30.26
2022-08-17T17:47:49.106Z,30.21
2022-08-17T17:50:27.559Z,30.13
2022-08-17T17:53:05.321Z,30.08
2022-08-17T17:56:00.926Z,30.06
2022-08-17T17:58:49.909Z,30.01
2022-08-17T18:01:39.955Z,29.95
2022-08-17T18:04:21.279Z,29.88
2022-08-17T18:07:16.321Z,29.84
2022-08-17T18:10:03.778Z,29.79
2022-08-17T18:12:41.644Z,29.79
2022-08-17T18:15:37.146Z,29.77
2022-08-17T18:18:31.071Z,29.73
2022-08-17T18:21:06.791Z,29.68
2022-08-17T18:23:46.516Z,29.64
2022-08-17T18:26:39.459Z,29.60
2022-08-17T18:29:30.182Z,29.58
2022-08-17T18:32:26.003Z,29.53
2022-08-17T18:35:01.352Z,29.53
2022-08-17T18:37:40.665Z,29.52
2022-08-17T18:40:33.958Z,29.49
2022-08-17T18:43:13.598Z,29.47
2022-08-17T18:45:50.047Z,29.44
2022-08-17T18:48:25.945Z,29.39
2022-08-17T18:51:00.875Z,29.35
2022-08-17T18:53:37.226Z,29.29
2022-08-17T18:56:30.741Z,29.24
2022-08-17T18:59:12.185Z,29.19
2022-08-17T19:02:03.209Z,29.16
2022-08-17T19:04:42.868Z,29.11
2022-08-17T19:07:31.236Z,29.08
2022-08-17T19:10:12.434Z,29.02
2022-08-17T19:12:48.213Z,28.97
2022-08-17T19:15:25.639Z,28.94
2022-08-17T19:18:01.664Z,28.90
2022-08-17T19:20:37.550Z,28.87
2022-08-17T19:23:17.639Z,28.84
2022-08-17T19:25:52.836Z,28.81
2022-08-17T19:28:30.161Z,28.78
2022-08-17T19:31:08.023Z,28.74
2022-08-17T19:33:39.841Z,28.71
2022-08-17T19:36:21.445Z,28.67
2022-08-17T19:39:00.398Z,28.64
2022-08-17T19:41:43.088Z,28.60
2022-08-17T19:44:36.794Z,28.56
2022-08-17T19:47:36.249Z,28.52
2022-08-17T19:50:16.207Z,28.49
2022-08-17T19:52:55.274Z,28.45
2022-08-17T19:55:33.961Z,28.41
2022-08-17T19:58:12.924Z,28.37
2022-08-17T20:00:53.034Z,28.32
2022-08-17T20:03:32.695Z,28.27
2022-08-17T20:06:15.281Z,28.25
2022-08-17T20:08:55.707Z,28.22
2022-08-17T20:11:33.365Z,28.20
2022-08-17T20:14:10.950Z,28.19
2022-08-17T20:16:43.130Z,28.18
2022-08-17T20:19:24.385Z,28.16
2022-08-17T20:22:01.609Z,28.10
2022-08-17T20:24:45.022Z,28.07
2022-08-17T20:27:20.677Z,28.06
2022-08-17T20:30:10.847Z,28.03
2022-08-17T20:32:56.347Z,28.01
2022-08-17T20:35:30.983Z,27.97
2022-08-17T20:38:05.956Z,27.95
2022-08-17T20:41:02.669Z,27.88
2022-08-17T20:44:06.707Z,27.79
2022-08-17T20:47:06.897Z,27.83
2022-08-17T20:49:51.673Z,27.75
2022-08-17T20:52:46.639Z,27.66
2022-08-17T20:55:55.829Z,27.70
2022-08-17T20:58:49.652Z,27.71
2022-08-17T21:01:38.990Z,27.71
2022-08-17T21:04:47.428Z,27.66
2022-08-17T21:07:33.163Z,27.57
2022-08-17T21:10:18.137Z,27.52
2022-08-17T21:12:54.945Z,27.54
2022-08-17T21:15:37.468Z,27.54
2022-08-17T21:18:12.726Z,27.53
2022-08-17T21:21:01.706Z,27.49
2022-08-17T21:23:47.984Z,27.42
2022-08-17T21:26:31.109Z,27.42
2022-08-17T21:29:32.465Z,27.36
2022-08-17T21:32:24.539Z,27.24
2022-08-17T21:35:24.617Z,27.32
2022-08-17T21:38:03.542Z,27.27
2022-08-17T21:40:36.482Z,27.27
2022-08-17T21:43:24.355Z,27.14
2022-08-17T21:46:03.497Z,27.16
2022-08-17T21:48:44.970Z,27.19
2022-08-17T21:51:23.834Z,27.14
2022-08-17T21:53:58.079Z,27.13
2022-08-17T21:56:34.009Z,26.99
2022-08-17T21:59:08.587Z,26.90
2022-08-17T22:01:42.961Z,26.96
2022-08-17T22:04:26.011Z,27.00
2022-08-17T22:06:59.844Z,26.96
2022-08-17T22:09:35.684Z,26.93
2022-08-17T22:12:11.842Z,26.85
2022-08-17T22:14:52.980Z,26.74
2022-08-17T22:17:28.284Z,26.81
2022-08-17T22:20:05.517Z,26.85
2022-08-17T22:23:09.379Z,26.84
2022-08-17T22:25:57.462Z,26.72
2022-08-17T22:28:41.933Z,26.54
2022-08-17T22:31:16.604Z,26.50
2022-08-17T22:33:51.432Z,26.46
2022-08-17T22:36:33.010Z,26.50
2022-08-17T22:39:43.095Z,26.56
2022-08-17T22:42:17.225Z,26.60
2022-08-17T22:44:51.416Z,26.57
2022-08-17T22:47:41.021Z,26.54
2022-08-17T22:50:23.836Z,26.50
2022-08-17T22:53:32.098Z,26.37
2022-08-17T22:56:22.119Z,26.41
2022-08-17T22:59:14.208Z,26.44
2022-08-17T23:02:06.953Z,26.42
2022-08-17T23:04:39.369Z,26.42
2022-08-17T23:07:11.288Z,26.36
2022-08-17T23:09:43.690Z,26.35
2022-08-17T23:12:17.837Z,26.24
2022-08-17T23:14:51.423Z,26.06
2022-08-17T23:17:23.110Z,26.09
2022-08-17T23:19:55.588Z,26.05
2022-08-17T23:22:25.968Z,26.11
2022-08-17T23:24:59.788Z,26.08
2022-08-17T23:27:32.234Z,26.11
2022-08-17T23:30:02.249Z,26.15
2022-08-17T23:32:36.705Z,26.05
2022-08-17T23:35:39.638Z,26.03
2022-08-17T23:38:13.853Z,25.86
2022-08-17T23:40:46.036Z,25.89
2022-08-17T23:43:24.021Z,25.89
2022-08-17T23:45:59.603Z,25.94
2022-08-17T23:48:36.671Z,25.87
2022-08-17T23:51:13.492Z,25.84
2022-08-17T23:53:47.612Z,25.87
2022-08-17T23:56:23.635Z,25.73
2022-08-17T23:58:56.471Z,25.76
